sensor_id;sensor_type;location;lat;lon;timestamp;temperature;humidity
11961;DHT22;6040;49.358;11.140;2023-04-23T00:00:54;14.70;99.90
11961;DHT22;6040;49.358;11.140;2023-04-23T00:03:22;14.70;99.90
11961;DHT22;6040;49.358;11.140;2023-04-23T00:05:52;14.60;99.90
11961;DHT22;6040;49.358;11.140;2023-04-23T00:08:22;14.60;99.90
11961;DHT22;6040;49.358;11.140;2023-04-23T00:10:49;14.50;99.90
11961;DHT22;6040;49.358;11.140;2023-04-23T00:13:17;14.50;99.90
11961;DHT22;6040;49.358;11.140;2023-04-23T00:15:44;14.50;99.90
11961;DHT22;6040;49.358;11.140;2023-04-23T00:18:11;14.50;99.90
11961;DHT22;6040;49.358;11.140;2023-04-23T00:20:38;14.40;99.90
11961;DHT22;6040;49.358;11.140;2023-04-23T00:23:05;14.40;99.90
11961;DHT22;6040;49.358;11.140;2023-04-23T00:25:33;14.70;99.90
11961;DHT22;6040;49.358;11.140;2023-04-23T00:28:00;14.30;99.90
11961;DHT22;6040;49.358;11.140;2023-04-23T00:30:27;13.90;99.90
11961;DHT22;6040;49.358;11.140;2023-04-23T00:32:54;14.30;99.90
11961;DHT22;6040;49.358;11.140;2023-04-23T00:35:21;13.90;99.90
11961;DHT22;6040;49.358;11.140;2023-04-23T00:37:48;14.30;99.90
11961;DHT22;6040;49.358;11.140;2023-04-23T00:40:15;14.20;99.90
11961;DHT22;6040;49.358;11.140;2023-04-23T00:42:43;14.10;99.90
11961;DHT22;6040;49.358;11.140;2023-04-23T00:45:10;14.10;99.90
11961;DHT22;6040;49.358;11.140;2023-04-23T00:47:39;14.00;99.90
11961;DHT22;6040;49.358;11.140;2023-04-23T00:50:07;14.00;99.90
11961;DHT22;6040;49.358;11.140;2023-04-23T00:52:34;14.00;99.90
11961;DHT22;6040;49.358;11.140;2023-04-23T00:55:04;13.90;99.90
11961;DHT22;6040;49.358;11.140;2023-04-23T00:57:31;13.90;99.90
11961;DHT22;6040;49.358;11.140;2023-04-23T00:59:59;13.90;99.90
11961;DHT22;6040;49.358;11.140;2023-04-23T01:02:26;13.90;99.90
11961;DHT22;6040;49.358;11.140;2023-04-23T01:04:55;13.90;99.90
11961;DHT22;6040;49.358;11.140;2023-04-23T01:07:23;13.90;99.90
11961;DHT22;6040;49.358;11.140;2023-04-23T01:09:50;13.80;99.90
11961;DHT22;6040;49.358;11.140;2023-04-23T01:12:17;13.80;99.90
11961;DHT22;6040;49.358;11.140;2023-04-23T01:14:44;13.80;99.90
11961;DHT22;6040;49.358;11.140;2023-04-23T01:17:13;13.70;99.90
11961;DHT22;6040;49.358;11.140;2023-04-23T01:19:40;13.70;99.90
11961;DHT22;6040;49.358;11.140;2023-04-23T01:22:10;13.80;99.90
11961;DHT22;6040;49.358;11.140;2023-04-23T01:24:37;13.80;99.90
11961;DHT22;6040;49.358;11.140;2023-04-23T01:27:05;13.80;99.90
11961;DHT22;6040;49.358;11.140;2023-04-23T01:29:32;13.70;99.90
11961;DHT22;6040;49.358;11.140;2023-04-23T01:32:00;13.70;99.90
11961;DHT22;6040;49.358;11.140;2023-04-23T01:34:28;13.70;99.90
11961;DHT22;6040;49.358;11.140;2023-04-23T01:36:56;13.60;99.90
11961;DHT22;6040;49.358;11.140;2023-04-23T01:39:25;13.60;99.90
11961;DHT22;6040;49.358;11.140;2023-04-23T01:41:52;13.60;99.90
11961;DHT22;6040;49.358;11.140;2023-04-23T01:44:19;13.60;99.90
11961;DHT22;6040;49.358;11.140;2023-04-23T01:46:45;13.60;99.90
11961;DHT22;6040;49.358;11.140;2023-04-23T01:49:13;13.60;99.90
11961;DHT22;6040;49.358;11.140;2023-04-23T01:51:40;13.50;99.90
11961;DHT22;6040;49.358;11.140;2023-04-23T01:54:07;13.60;99.90
11961;DHT22;6040;49.358;11.140;2023-04-23T01:56:35;13.40;99.90
11961;DHT22;6040;49.358;11.140;2023-04-23T01:59:02;13.00;99.90
11961;DHT22;6040;49.358;11.140;2023-04-23T02:01:40;13.40;99.90
11961;DHT22;6040;49.358;11.140;2023-04-23T02:04:09;13.40;99.90
11961;DHT22;6040;49.358;11.140;2023-04-23T02:06:35;13.30;99.90
11961;DHT22;6040;49.358;11.140;2023-04-23T02:09:02;14.50;99.90
11961;DHT22;6040;49.358;11.140;2023-04-23T02:11:30;13.30;99.90
11961;DHT22;6040;49.358;11.140;2023-04-23T02:13:58;13.20;99.90
11961;DHT22;6040;49.358;11.140;2023-04-23T02:16:25;13.20;99.90
11961;DHT22;6040;49.358;11.140;2023-04-23T02:18:52;13.30;99.90
11961;DHT22;6040;49.358;11.140;2023-04-23T02:21:20;13.20;99.90
11961;DHT22;6040;49.358;11.140;2023-04-23T02:23:47;13.20;99.90
11961;DHT22;6040;49.358;11.140;2023-04-23T02:26:14;13.20;99.90
11961;DHT22;6040;49.358;11.140;2023-04-23T02:28:41;13.10;99.90
11961;DHT22;6040;49.358;11.140;2023-04-23T02:31:09;13.10;99.90
11961;DHT22;6040;49.358;11.140;2023-04-23T02:33:36;12.70;99.90
11961;DHT22;6040;49.358;11.140;2023-04-23T02:36:03;13.10;99.90
11961;DHT22;6040;49.358;11.140;2023-04-23T02:38:30;13.00;99.90
11961;DHT22;6040;49.358;11.140;2023-04-23T02:40:56;13.10;99.90
11961;DHT22;6040;49.358;11.140;2023-04-23T02:43:23;13.00;99.90
11961;DHT22;6040;49.358;11.140;2023-04-23T02:45:50;13.10;99.90
11961;DHT22;6040;49.358;11.140;2023-04-23T02:48:18;13.00;99.90
11961;DHT22;6040;49.358;11.140;2023-04-23T02:50:46;13.10;99.90
11961;DHT22;6040;49.358;11.140;2023-04-23T02:53:13;13.00;99.90
11961;DHT22;6040;49.358;11.140;2023-04-23T02:55:40;13.00;99.90
11961;DHT22;6040;49.358;11.140;2023-04-23T02:58:07;13.10;99.90
11961;DHT22;6040;49.358;11.140;2023-04-23T03:00:34;13.10;99.90
11961;DHT22;6040;49.358;11.140;2023-04-23T03:03:01;13.10;99.90
11961;DHT22;6040;49.358;11.140;2023-04-23T03:05:29;13.10;99.90
11961;DHT22;6040;49.358;11.140;2023-04-23T03:07:56;13.10;99.90
11961;DHT22;6040;49.358;11.140;2023-04-23T03:10:23;13.10;99.90
11961;DHT22;6040;49.358;11.140;2023-04-23T03:12:50;13.10;99.90
11961;DHT22;6040;49.358;11.140;2023-04-23T03:15:16;13.00;99.90
11961;DHT22;6040;49.358;11.140;2023-04-23T03:17:43;13.10;99.90
11961;DHT22;6040;49.358;11.140;2023-04-23T03:20:10;13.10;99.90
11961;DHT22;6040;49.358;11.140;2023-04-23T03:22:39;13.00;99.90
11961;DHT22;6040;49.358;11.140;2023-04-23T03:25:06;13.00;99.90
11961;DHT22;6040;49.358;11.140;2023-04-23T03:27:33;13.00;99.90
11961;DHT22;6040;49.358;11.140;2023-04-23T03:30:00;13.10;99.90
11961;DHT22;6040;49.358;11.140;2023-04-23T03:32:27;13.00;99.90
11961;DHT22;6040;49.358;11.140;2023-04-23T03:34:54;13.00;99.90
11961;DHT22;6040;49.358;11.140;2023-04-23T03:37:21;13.00;99.90
11961;DHT22;6040;49.358;11.140;2023-04-23T03:39:49;13.00;99.90
11961;DHT22;6040;49.358;11.140;2023-04-23T03:42:16;12.90;99.90
11961;DHT22;6040;49.358;11.140;2023-04-23T03:44:43;12.90;99.90
11961;DHT22;6040;49.358;11.140;2023-04-23T03:47:10;12.90;99.90
11961;DHT22;6040;49.358;11.140;2023-04-23T03:49:36;13.10;99.90
11961;DHT22;6040;49.358;11.140;2023-04-23T03:52:04;12.90;99.90
11961;DHT22;6040;49.358;11.140;2023-04-23T03:54:31;13.00;99.90
11961;DHT22;6040;49.358;11.140;2023-04-23T03:56:59;12.90;99.90
11961;DHT22;6040;49.358;11.140;2023-04-23T03:59:27;12.90;99.90
11961;DHT22;6040;49.358;11.140;2023-04-23T04:01:53;12.90;99.90
11961;DHT22;6040;49.358;11.140;2023-04-23T04:04:20;12.90;99.90
11961;DHT22;6040;49.358;11.140;2023-04-23T04:06:47;12.90;99.90
11961;DHT22;6040;49.358;11.140;2023-04-23T04:09:14;12.40;99.90
11961;DHT22;6040;49.358;11.140;2023-04-23T04:11:41;12.90;99.90
11961;DHT22;6040;49.358;11.140;2023-04-23T04:14:09;12.90;99.90
11961;DHT22;6040;49.358;11.140;2023-04-23T04:16:36;12.90;99.90
11961;DHT22;6040;49.358;11.140;2023-04-23T04:19:03;12.90;99.90
11961;DHT22;6040;49.358;11.140;2023-04-23T04:21:30;12.90;99.90
11961;DHT22;6040;49.358;11.140;2023-04-23T04:23:58;12.90;99.90
11961;DHT22;6040;49.358;11.140;2023-04-23T04:26:26;12.90;99.90
11961;DHT22;6040;49.358;11.140;2023-04-23T04:28:53;12.80;99.90
11961;DHT22;6040;49.358;11.140;2023-04-23T04:31:21;12.80;99.90
11961;DHT22;6040;49.358;11.140;2023-04-23T04:33:48;12.40;99.90
11961;DHT22;6040;49.358;11.140;2023-04-23T04:36:14;12.50;99.90
11961;DHT22;6040;49.358;11.140;2023-04-23T04:38:42;12.60;99.90
11961;DHT22;6040;49.358;11.140;2023-04-23T04:41:09;12.80;99.90
11961;DHT22;6040;49.358;11.140;2023-04-23T04:43:36;12.90;99.90
11961;DHT22;6040;49.358;11.140;2023-04-23T04:46:03;12.80;99.90
11961;DHT22;6040;49.358;11.140;2023-04-23T04:48:31;12.80;99.90
11961;DHT22;6040;49.358;11.140;2023-04-23T04:50:58;12.80;99.90
11961;DHT22;6040;49.358;11.140;2023-04-23T04:53:25;12.80;99.90
11961;DHT22;6040;49.358;11.140;2023-04-23T04:55:51;12.80;99.90
11961;DHT22;6040;49.358;11.140;2023-04-23T04:58:18;12.80;99.90
11961;DHT22;6040;49.358;11.140;2023-04-23T05:00:45;12.80;99.90
11961;DHT22;6040;49.358;11.140;2023-04-23T05:03:13;12.80;99.90
11961;DHT22;6040;49.358;11.140;2023-04-23T05:05:41;12.80;99.90
11961;DHT22;6040;49.358;11.140;2023-04-23T05:08:09;12.80;99.90
11961;DHT22;6040;49.358;11.140;2023-04-23T05:10:36;12.70;99.90
11961;DHT22;6040;49.358;11.140;2023-04-23T05:13:03;12.70;99.90
11961;DHT22;6040;49.358;11.140;2023-04-23T05:15:30;12.70;99.90
11961;DHT22;6040;49.358;11.140;2023-04-23T05:17:57;12.70;99.90
11961;DHT22;6040;49.358;11.140;2023-04-23T05:20:24;12.90;99.90
11961;DHT22;6040;49.358;11.140;2023-04-23T05:22:53;12.60;99.90
11961;DHT22;6040;49.358;11.140;2023-04-23T05:25:19;12.60;99.90
11961;DHT22;6040;49.358;11.140;2023-04-23T05:27:46;12.60;99.90
11961;DHT22;6040;49.358;11.140;2023-04-23T05:30:13;12.50;99.90
11961;DHT22;6040;49.358;11.140;2023-04-23T05:32:40;12.60;99.90
11961;DHT22;6040;49.358;11.140;2023-04-23T05:35:07;12.70;99.90
11961;DHT22;6040;49.358;11.140;2023-04-23T05:37:34;12.60;99.90
11961;DHT22;6040;49.358;11.140;2023-04-23T05:40:03;12.60;99.90
11961;DHT22;6040;49.358;11.140;2023-04-23T05:42:31;12.60;99.90
11961;DHT22;6040;49.358;11.140;2023-04-23T05:44:59;12.60;99.90
11961;DHT22;6040;49.358;11.140;2023-04-23T05:47:27;12.50;99.90
11961;DHT22;6040;49.358;11.140;2023-04-23T05:49:54;12.50;99.90
11961;DHT22;6040;49.358;11.140;2023-04-23T05:52:22;12.60;99.90
11961;DHT22;6040;49.358;11.140;2023-04-23T05:54:49;12.60;99.90
11961;DHT22;6040;49.358;11.140;2023-04-23T05:57:17;12.60;99.90
11961;DHT22;6040;49.358;11.140;2023-04-23T05:59:44;14.00;99.90
11961;DHT22;6040;49.358;11.140;2023-04-23T06:02:11;12.60;99.90
11961;DHT22;6040;49.358;11.140;2023-04-23T06:04:37;12.60;99.90
11961;DHT22;6040;49.358;11.140;2023-04-23T06:07:05;13.10;99.90
11961;DHT22;6040;49.358;11.140;2023-04-23T06:09:32;12.50;99.90
11961;DHT22;6040;49.358;11.140;2023-04-23T06:11:59;12.60;99.90
11961;DHT22;6040;49.358;11.140;2023-04-23T06:14:27;12.60;99.90
11961;DHT22;6040;49.358;11.140;2023-04-23T06:16:54;12.70;99.90
11961;DHT22;6040;49.358;11.140;2023-04-23T06:19:21;12.60;99.90
11961;DHT22;6040;49.358;11.140;2023-04-23T06:21:50;13.00;99.90
11961;DHT22;6040;49.358;11.140;2023-04-23T06:24:16;13.60;99.90
11961;DHT22;6040;49.358;11.140;2023-04-23T06:26:43;12.60;99.90
11961;DHT22;6040;49.358;11.140;2023-04-23T06:29:10;12.50;99.90
11961;DHT22;6040;49.358;11.140;2023-04-23T06:31:38;12.60;99.90
11961;DHT22;6040;49.358;11.140;2023-04-23T06:34:06;12.60;99.90
11961;DHT22;6040;49.358;11.140;2023-04-23T06:36:33;12.50;99.90
11961;DHT22;6040;49.358;11.140;2023-04-23T06:39:00;12.60;99.90
11961;DHT22;6040;49.358;11.140;2023-04-23T06:41:26;13.80;99.90
11961;DHT22;6040;49.358;11.140;2023-04-23T06:43:53;12.40;99.90
11961;DHT22;6040;49.358;11.140;2023-04-23T06:46:20;12.50;99.90
11961;DHT22;6040;49.358;11.140;2023-04-23T06:48:48;12.70;99.90
11961;DHT22;6040;49.358;11.140;2023-04-23T06:51:15;13.00;99.90
11961;DHT22;6040;49.358;11.140;2023-04-23T06:53:42;12.60;99.90
11961;DHT22;6040;49.358;11.140;2023-04-23T06:56:09;12.60;99.90
11961;DHT22;6040;49.358;11.140;2023-04-23T06:58:36;13.30;99.90
11961;DHT22;6040;49.358;11.140;2023-04-23T07:01:03;12.60;99.90
11961;DHT22;6040;49.358;11.140;2023-04-23T07:03:32;12.70;99.90
11961;DHT22;6040;49.358;11.140;2023-04-23T07:06:00;12.50;99.90
11961;DHT22;6040;49.358;11.140;2023-04-23T07:08:27;12.40;99.90
11961;DHT22;6040;49.358;11.140;2023-04-23T07:10:54;12.40;99.90
11961;DHT22;6040;49.358;11.140;2023-04-23T07:13:21;12.50;99.90
11961;DHT22;6040;49.358;11.140;2023-04-23T07:15:48;12.90;99.90
11961;DHT22;6040;49.358;11.140;2023-04-23T07:18:15;12.70;99.90
11961;DHT22;6040;49.358;11.140;2023-04-23T07:20:42;12.60;99.90
11961;DHT22;6040;49.358;11.140;2023-04-23T07:23:10;12.50;99.90
11961;DHT22;6040;49.358;11.140;2023-04-23T07:25:37;12.60;99.90
11961;DHT22;6040;49.358;11.140;2023-04-23T07:28:04;12.70;99.90
11961;DHT22;6040;49.358;11.140;2023-04-23T07:30:31;13.40;99.90
11961;DHT22;6040;49.358;11.140;2023-04-23T07:32:57;12.60;99.90
11961;DHT22;6040;49.358;11.140;2023-04-23T07:35:24;12.70;99.90
11961;DHT22;6040;49.358;11.140;2023-04-23T07:37:52;12.70;99.90
11961;DHT22;6040;49.358;11.140;2023-04-23T07:40:22;12.90;99.90
11961;DHT22;6040;49.358;11.140;2023-04-23T07:42:50;13.00;99.90
11961;DHT22;6040;49.358;11.140;2023-04-23T07:45:17;13.20;99.90
11961;DHT22;6040;49.358;11.140;2023-04-23T07:47:44;13.40;99.90
11961;DHT22;6040;49.358;11.140;2023-04-23T07:50:11;13.40;99.90
11961;DHT22;6040;49.358;11.140;2023-04-23T07:52:38;13.70;99.90
11961;DHT22;6040;49.358;11.140;2023-04-23T07:55:06;14.20;99.90
11961;DHT22;6040;49.358;11.140;2023-04-23T07:57:35;13.90;99.90
11961;DHT22;6040;49.358;11.140;2023-04-23T08:00:02;12.80;99.90
11961;DHT22;6040;49.358;11.140;2023-04-23T08:02:29;13.90;99.90
11961;DHT22;6040;49.358;11.140;2023-04-23T08:04:56;13.80;99.90
11961;DHT22;6040;49.358;11.140;2023-04-23T08:07:23;13.70;99.90
11961;DHT22;6040;49.358;11.140;2023-04-23T08:09:50;13.80;99.90
11961;DHT22;6040;49.358;11.140;2023-04-23T08:12:17;13.80;99.90
11961;DHT22;6040;49.358;11.140;2023-04-23T08:14:45;13.80;99.90
11961;DHT22;6040;49.358;11.140;2023-04-23T08:17:12;13.80;99.90
11961;DHT22;6040;49.358;11.140;2023-04-23T08:19:39;13.60;99.90
11961;DHT22;6040;49.358;11.140;2023-04-23T08:22:06;13.60;99.90
11961;DHT22;6040;49.358;11.140;2023-04-23T08:24:32;13.50;99.90
11961;DHT22;6040;49.358;11.140;2023-04-23T08:26:59;14.50;99.90
11961;DHT22;6040;49.358;11.140;2023-04-23T08:29:27;13.50;99.90
11961;DHT22;6040;49.358;11.140;2023-04-23T08:31:55;13.60;99.90
11961;DHT22;6040;49.358;11.140;2023-04-23T08:34:22;13.60;99.90
11961;DHT22;6040;49.358;11.140;2023-04-23T08:36:49;13.60;99.90
11961;DHT22;6040;49.358;11.140;2023-04-23T08:39:15;13.70;99.90
11961;DHT22;6040;49.358;11.140;2023-04-23T08:41:43;14.40;99.90
11961;DHT22;6040;49.358;11.140;2023-04-23T08:44:17;13.90;99.90
11961;DHT22;6040;49.358;11.140;2023-04-23T08:46:44;14.30;99.90
11961;DHT22;6040;49.358;11.140;2023-04-23T08:49:14;14.50;99.90
11961;DHT22;6040;49.358;11.140;2023-04-23T08:51:45;14.50;99.90
11961;DHT22;6040;49.358;11.140;2023-04-23T08:54:24;14.90;99.90
11961;DHT22;6040;49.358;11.140;2023-04-23T08:56:52;15.10;99.90
11961;DHT22;6040;49.358;11.140;2023-04-23T08:59:22;15.50;99.90
11961;DHT22;6040;49.358;11.140;2023-04-23T09:01:48;15.40;99.90
11961;DHT22;6040;49.358;11.140;2023-04-23T09:04:17;15.30;99.90
11961;DHT22;6040;49.358;11.140;2023-04-23T09:06:45;15.40;99.90
11961;DHT22;6040;49.358;11.140;2023-04-23T09:09:14;15.30;99.90
11961;DHT22;6040;49.358;11.140;2023-04-23T09:11:41;15.20;99.90
11961;DHT22;6040;49.358;11.140;2023-04-23T09:14:09;15.20;99.90
11961;DHT22;6040;49.358;11.140;2023-04-23T09:16:36;15.20;99.90
11961;DHT22;6040;49.358;11.140;2023-04-23T09:19:06;15.30;99.90
11961;DHT22;6040;49.358;11.140;2023-04-23T09:21:38;15.70;99.90
11961;DHT22;6040;49.358;11.140;2023-04-23T09:24:08;15.70;99.90
11961;DHT22;6040;49.358;11.140;2023-04-23T09:26:36;15.80;99.90
11961;DHT22;6040;49.358;11.140;2023-04-23T09:29:12;16.30;99.90
11961;DHT22;6040;49.358;11.140;2023-04-23T09:31:41;16.10;99.90
11961;DHT22;6040;49.358;11.140;2023-04-23T09:34:08;15.90;99.90
11961;DHT22;6040;49.358;11.140;2023-04-23T09:36:37;15.90;99.90
11961;DHT22;6040;49.358;11.140;2023-04-23T09:39:11;15.50;99.90
11961;DHT22;6040;49.358;11.140;2023-04-23T09:41:38;15.40;99.90
11961;DHT22;6040;49.358;11.140;2023-04-23T09:44:05;15.20;99.90
11961;DHT22;6040;49.358;11.140;2023-04-23T09:46:34;15.30;99.90
11961;DHT22;6040;49.358;11.140;2023-04-23T09:49:02;15.50;99.90
11961;DHT22;6040;49.358;11.140;2023-04-23T09:51:32;15.30;99.90
11961;DHT22;6040;49.358;11.140;2023-04-23T09:54:01;15.50;99.90
11961;DHT22;6040;49.358;11.140;2023-04-23T09:56:29;15.80;99.90
11961;DHT22;6040;49.358;11.140;2023-04-23T09:58:56;15.80;99.90
11961;DHT22;6040;49.358;11.140;2023-04-23T10:01:27;16.00;99.90
11961;DHT22;6040;49.358;11.140;2023-04-23T10:03:55;16.40;99.90
11961;DHT22;6040;49.358;11.140;2023-04-23T10:06:26;16.40;99.90
11961;DHT22;6040;49.358;11.140;2023-04-23T10:08:56;16.60;99.90
11961;DHT22;6040;49.358;11.140;2023-04-23T10:11:24;16.30;99.90
11961;DHT22;6040;49.358;11.140;2023-04-23T10:13:52;16.50;99.90
11961;DHT22;6040;49.358;11.140;2023-04-23T10:16:20;16.50;99.90
11961;DHT22;6040;49.358;11.140;2023-04-23T10:18:48;16.50;99.90
11961;DHT22;6040;49.358;11.140;2023-04-23T10:21:16;16.30;99.90
11961;DHT22;6040;49.358;11.140;2023-04-23T10:23:46;16.90;99.90
11961;DHT22;6040;49.358;11.140;2023-04-23T10:26:14;16.80;99.90
11961;DHT22;6040;49.358;11.140;2023-04-23T10:28:46;17.00;99.90
11961;DHT22;6040;49.358;11.140;2023-04-23T10:31:13;17.10;99.90
11961;DHT22;6040;49.358;11.140;2023-04-23T10:33:42;17.10;99.90
11961;DHT22;6040;49.358;11.140;2023-04-23T10:36:09;16.90;99.90
11961;DHT22;6040;49.358;11.140;2023-04-23T10:38:37;17.00;99.90
11961;DHT22;6040;49.358;11.140;2023-04-23T10:41:06;16.80;99.90
11961;DHT22;6040;49.358;11.140;2023-04-23T10:43:34;16.70;99.90
11961;DHT22;6040;49.358;11.140;2023-04-23T10:46:03;16.70;99.90
11961;DHT22;6040;49.358;11.140;2023-04-23T10:48:50;16.50;99.90
11961;DHT22;6040;49.358;11.140;2023-04-23T10:51:17;16.90;99.90
11961;DHT22;6040;49.358;11.140;2023-04-23T10:53:44;16.70;99.90
11961;DHT22;6040;49.358;11.140;2023-04-23T10:56:11;17.00;99.90
11961;DHT22;6040;49.358;11.140;2023-04-23T10:58:47;16.90;99.90
11961;DHT22;6040;49.358;11.140;2023-04-23T11:01:17;16.80;99.90
11961;DHT22;6040;49.358;11.140;2023-04-23T11:03:45;17.00;99.90
11961;DHT22;6040;49.358;11.140;2023-04-23T11:06:13;16.90;99.90
11961;DHT22;6040;49.358;11.140;2023-04-23T11:08:50;17.20;99.90
11961;DHT22;6040;49.358;11.140;2023-04-23T11:11:18;17.40;99.90
11961;DHT22;6040;49.358;11.140;2023-04-23T11:13:50;17.70;99.90
11961;DHT22;6040;49.358;11.140;2023-04-23T11:16:22;18.30;99.90
11961;DHT22;6040;49.358;11.140;2023-04-23T11:18:56;18.40;99.90
11961;DHT22;6040;49.358;11.140;2023-04-23T11:21:57;18.70;99.80
11961;DHT22;6040;49.358;11.140;2023-04-23T11:24:25;19.00;99.70
11961;DHT22;6040;49.358;11.140;2023-04-23T11:26:53;19.60;99.90
11961;DHT22;6040;49.358;11.140;2023-04-23T11:29:21;19.70;99.90
11961;DHT22;6040;49.358;11.140;2023-04-23T11:31:50;19.40;99.90
11961;DHT22;6040;49.358;11.140;2023-04-23T11:34:17;19.30;99.90
11961;DHT22;6040;49.358;11.140;2023-04-23T11:36:45;19.10;99.90
11961;DHT22;6040;49.358;11.140;2023-04-23T11:39:12;18.50;99.90
11961;DHT22;6040;49.358;11.140;2023-04-23T11:41:39;18.70;99.90
11961;DHT22;6040;49.358;11.140;2023-04-23T11:44:07;19.30;99.90
11961;DHT22;6040;49.358;11.140;2023-04-23T11:46:34;19.90;99.90
11961;DHT22;6040;49.358;11.140;2023-04-23T11:49:02;19.70;99.90
11961;DHT22;6040;49.358;11.140;2023-04-23T11:51:31;20.10;99.40
11961;DHT22;6040;49.358;11.140;2023-04-23T11:54:04;19.70;99.90
11961;DHT22;6040;49.358;11.140;2023-04-23T11:56:31;19.90;98.30
11961;DHT22;6040;49.358;11.140;2023-04-23T11:59:00;20.10;99.80
11961;DHT22;6040;49.358;11.140;2023-04-23T12:01:39;20.50;98.40
11961;DHT22;6040;49.358;11.140;2023-04-23T12:04:12;20.30;97.80
11961;DHT22;6040;49.358;11.140;2023-04-23T12:06:41;20.30;99.40
11961;DHT22;6040;49.358;11.140;2023-04-23T12:09:08;20.50;97.30
11961;DHT22;6040;49.358;11.140;2023-04-23T12:11:36;20.80;96.00
11961;DHT22;6040;49.358;11.140;2023-04-23T12:14:03;20.50;97.00
11961;DHT22;6040;49.358;11.140;2023-04-23T12:16:37;20.30;97.50
11961;DHT22;6040;49.358;11.140;2023-04-23T12:19:07;20.00;98.10
11961;DHT22;6040;49.358;11.140;2023-04-23T12:21:46;19.40;98.70
11961;DHT22;6040;49.358;11.140;2023-04-23T12:24:13;19.40;98.70
11961;DHT22;6040;49.358;11.140;2023-04-23T12:26:40;19.50;99.00
11961;DHT22;6040;49.358;11.140;2023-04-23T12:29:07;19.70;99.50
11961;DHT22;6040;49.358;11.140;2023-04-23T12:31:36;19.80;98.80
11961;DHT22;6040;49.358;11.140;2023-04-23T12:34:04;19.80;98.60
11961;DHT22;6040;49.358;11.140;2023-04-23T12:36:32;19.80;97.90
11961;DHT22;6040;49.358;11.140;2023-04-23T12:39:27;19.50;98.60
11961;DHT22;6040;49.358;11.140;2023-04-23T12:41:57;19.10;99.00
11961;DHT22;6040;49.358;11.140;2023-04-23T12:44:27;19.10;99.50
11961;DHT22;6040;49.358;11.140;2023-04-23T12:46:55;18.90;99.20
11961;DHT22;6040;49.358;11.140;2023-04-23T12:49:22;18.60;99.90
11961;DHT22;6040;49.358;11.140;2023-04-23T12:51:49;18.70;99.90
11961;DHT22;6040;49.358;11.140;2023-04-23T12:54:17;19.10;99.90
11961;DHT22;6040;49.358;11.140;2023-04-23T12:56:45;19.00;99.80
11961;DHT22;6040;49.358;11.140;2023-04-23T12:59:12;19.10;99.30
11961;DHT22;6040;49.358;11.140;2023-04-23T13:01:39;18.90;99.90
11961;DHT22;6040;49.358;11.140;2023-04-23T13:04:06;18.80;99.20
11961;DHT22;6040;49.358;11.140;2023-04-23T13:06:33;18.90;99.90
11961;DHT22;6040;49.358;11.140;2023-04-23T13:09:00;18.90;99.80
11961;DHT22;6040;49.358;11.140;2023-04-23T13:11:30;18.80;99.90
11961;DHT22;6040;49.358;11.140;2023-04-23T13:13:58;19.00;99.90
11961;DHT22;6040;49.358;11.140;2023-04-23T13:38:35;18.60;97.30
11961;DHT22;6040;49.358;11.140;2023-04-23T13:41:02;18.80;98.30
11961;DHT22;6040;49.358;11.140;2023-04-23T13:43:29;18.90;96.90
11961;DHT22;6040;49.358;11.140;2023-04-23T13:45:56;18.80;97.00
11961;DHT22;6040;49.358;11.140;2023-04-23T13:48:23;19.10;97.30
11961;DHT22;6040;49.358;11.140;2023-04-23T13:50:55;18.60;97.30
11961;DHT22;6040;49.358;11.140;2023-04-23T13:53:22;18.60;97.70
11961;DHT22;6040;49.358;11.140;2023-04-23T13:55:50;18.80;98.30
11961;DHT22;6040;49.358;11.140;2023-04-23T13:58:18;19.00;97.80
11961;DHT22;6040;49.358;11.140;2023-04-23T14:00:45;19.30;97.20
11961;DHT22;6040;49.358;11.140;2023-04-23T14:03:12;19.20;96.50
11961;DHT22;6040;49.358;11.140;2023-04-23T14:05:39;19.00;97.00
11961;DHT22;6040;49.358;11.140;2023-04-23T14:08:05;18.90;97.50
11961;DHT22;6040;49.358;11.140;2023-04-23T14:10:33;19.00;97.10
11961;DHT22;6040;49.358;11.140;2023-04-23T14:13:01;19.10;97.20
11961;DHT22;6040;49.358;11.140;2023-04-23T14:15:28;19.30;96.80
11961;DHT22;6040;49.358;11.140;2023-04-23T14:17:55;19.50;96.90
11961;DHT22;6040;49.358;11.140;2023-04-23T14:20:22;19.50;97.60
11961;DHT22;6040;49.358;11.140;2023-04-23T14:22:54;19.50;96.40
11961;DHT22;6040;49.358;11.140;2023-04-23T14:25:29;19.50;96.00
11961;DHT22;6040;49.358;11.140;2023-04-23T14:27:56;19.50;96.50
11961;DHT22;6040;49.358;11.140;2023-04-23T14:30:28;19.60;95.50
11961;DHT22;6040;49.358;11.140;2023-04-23T14:32:56;19.60;95.50
11961;DHT22;6040;49.358;11.140;2023-04-23T14:35:23;19.60;95.20
11961;DHT22;6040;49.358;11.140;2023-04-23T14:37:50;19.50;95.40
11961;DHT22;6040;49.358;11.140;2023-04-23T14:40:16;19.40;95.70
11961;DHT22;6040;49.358;11.140;2023-04-23T14:42:46;19.60;95.80
11961;DHT22;6040;49.358;11.140;2023-04-23T14:45:15;19.70;95.90
11961;DHT22;6040;49.358;11.140;2023-04-23T14:47:44;20.00;95.60
11961;DHT22;6040;49.358;11.140;2023-04-23T14:50:14;19.90;95.10
11961;DHT22;6040;49.358;11.140;2023-04-23T14:52:41;19.80;95.10
11961;DHT22;6040;49.358;11.140;2023-04-23T14:55:09;19.90;95.10
11961;DHT22;6040;49.358;11.140;2023-04-23T14:57:36;19.80;95.00
11961;DHT22;6040;49.358;11.140;2023-04-23T15:00:04;19.80;94.70
11961;DHT22;6040;49.358;11.140;2023-04-23T15:02:32;19.90;94.60
11961;DHT22;6040;49.358;11.140;2023-04-23T15:05:01;19.80;94.50
11961;DHT22;6040;49.358;11.140;2023-04-23T15:07:28;19.90;94.60
11961;DHT22;6040;49.358;11.140;2023-04-23T15:09:57;20.00;94.50
11961;DHT22;6040;49.358;11.140;2023-04-23T15:12:48;20.00;94.20
11961;DHT22;6040;49.358;11.140;2023-04-23T15:15:24;19.90;94.40
11961;DHT22;6040;49.358;11.140;2023-04-23T15:17:52;20.10;94.00
11961;DHT22;6040;49.358;11.140;2023-04-23T15:20:20;20.00;94.40
11961;DHT22;6040;49.358;11.140;2023-04-23T15:22:47;19.60;94.60
11961;DHT22;6040;49.358;11.140;2023-04-23T15:25:14;19.30;95.00
11961;DHT22;6040;49.358;11.140;2023-04-23T15:27:42;19.10;95.00
11961;DHT22;6040;49.358;11.140;2023-04-23T15:30:09;19.20;95.70
11961;DHT22;6040;49.358;11.140;2023-04-23T15:32:36;19.30;95.10
11961;DHT22;6040;49.358;11.140;2023-04-23T15:35:03;19.40;95.50
11961;DHT22;6040;49.358;11.140;2023-04-23T15:37:32;19.60;95.10
11961;DHT22;6040;49.358;11.140;2023-04-23T15:39:58;19.70;95.60
11961;DHT22;6040;49.358;11.140;2023-04-23T15:42:25;19.70;95.20
11961;DHT22;6040;49.358;11.140;2023-04-23T15:44:52;19.80;95.10
11961;DHT22;6040;49.358;11.140;2023-04-23T15:47:21;19.60;95.50
11961;DHT22;6040;49.358;11.140;2023-04-23T15:49:48;19.30;95.60
11961;DHT22;6040;49.358;11.140;2023-04-23T15:52:15;19.10;95.90
11961;DHT22;6040;49.358;11.140;2023-04-23T15:54:44;18.90;95.30
11961;DHT22;6040;49.358;11.140;2023-04-23T16:00:39;18.70;95.30